Ana Sayfa
METAR-TAF:

METAR-TAF

Havaalanları :

Kununurra, Avustralya

Enlem: 15-46S, Boylam: 128-42E, yükseklik: 44 m

Güncel hava durumu gözlemi

Rapor saat 20:00 UTC de 19 dakika önce yapıldı.
Sakin rüzgar
Sıcaklık 11°C
Basınç 1015 hPa
Görüş mesafesi 10 km veya daha fazla

METAR: YPKU 052000Z AUTO 00000KT 9999 // NCD 11/// Q1015 RF00.0/000.0

Saat: 04:19 (20:19 UTC)

Tahmin

Rapor saat 18:03 UTC de 2 saat ve 16 dakika önce yapıldı.
Ayın 05'si saat 20 UTC'den ayın 06'si saat 08 UTC'ye kadar geçerli Tahmin
Rüzgar güney/güneydoğudan 5 kt
Görüş mesafesi 10 km veya daha fazla
1500 m altında bulut yok ve kümülonimbus yok
Ayın 06'si saat 0000 UTC'den
Rüzgar güneydoğudan 10 kt
Görüş mesafesi 10 km veya daha fazla
1500 m altında bulut yok ve kümülonimbus yok

TAF: YPKU 051803Z 0520/0608 15005KT CAVOK FM060000 13010KT CAVOK

4.000'den fazla havaalanı için hava durumu gözlemleri ve tahminleri (METAR ve TAF raporları).

Kullanılabilir istasyonlar harita üzerinde sarı ve kırmızı noktalarla gösterilir.

İstasyonun adını görmek için fareyi noktanın üzerinde gezdirin.

Sonrasında hava gözlem ve tahminlerini görmek için tıklayın.

Haritayı değiştirmek için: yaklaştırmak için siyah artı işaretli yeşil düğmeye ve uzaklaştırmak için de eksi işaretli düğmeye hızla tıklayın; bitişik haritalar için yeşil okları kullanın.


METAR-TAF: